sensor_id;sensor_type;location;lat;lon;timestamp;pressure;altitude;pressure_sealevel;temperature;humidity
79586;BME280;69054;50.866;4.636;2023-09-12T00:00:45;100892.66;;;17.83;100.00
79586;BME280;69054;50.866;4.636;2023-09-12T00:03:11;100895.53;;;17.88;100.00
79586;BME280;69054;50.866;4.636;2023-09-12T00:05:37;100886.63;;;17.86;100.00
79586;BME280;69054;50.866;4.636;2023-09-12T00:08:02;100889.63;;;17.85;100.00
79586;BME280;69054;50.866;4.636;2023-09-12T00:10:29;100884.25;;;17.78;100.00
79586;BME280;69054;50.866;4.636;2023-09-12T00:12:55;100884.16;;;17.73;100.00
79586;BME280;69054;50.866;4.636;2023-09-12T00:15:20;100885.31;;;17.77;100.00
79586;BME280;69054;50.866;4.636;2023-09-12T00:17:46;100889.28;;;17.81;100.00
79586;BME280;69054;50.866;4.636;2023-09-12T00:20:13;100887.59;;;17.80;100.00
79586;BME280;69054;50.866;4.636;2023-09-12T00:22:39;100891.72;;;17.78;100.00
79586;BME280;69054;50.866;4.636;2023-09-12T00:25:05;100895.44;;;17.71;100.00
79586;BME280;69054;50.866;4.636;2023-09-12T00:27:30;100883.19;;;17.67;100.00
79586;BME280;69054;50.866;4.636;2023-09-12T00:29:56;100886.03;;;17.61;100.00
79586;BME280;69054;50.866;4.636;2023-09-12T00:32:21;100879.59;;;17.55;100.00
79586;BME280;69054;50.866;4.636;2023-09-12T00:34:46;100885.19;;;17.48;100.00
79586;BME280;69054;50.866;4.636;2023-09-12T00:37:12;100886.53;;;17.46;100.00
79586;BME280;69054;50.866;4.636;2023-09-12T00:39:37;100884.50;;;17.41;100.00
79586;BME280;69054;50.866;4.636;2023-09-12T00:42:03;100889.41;;;17.51;100.00
79586;BME280;69054;50.866;4.636;2023-09-12T00:44:28;100885.59;;;17.52;100.00
79586;BME280;69054;50.866;4.636;2023-09-12T00:46:54;100882.81;;;17.52;100.00
79586;BME280;69054;50.866;4.636;2023-09-12T00:49:21;100878.50;;;17.44;100.00
79586;BME280;69054;50.866;4.636;2023-09-12T00:51:49;100883.53;;;17.35;100.00
79586;BME280;69054;50.866;4.636;2023-09-12T00:54:15;100887.94;;;17.36;100.00
79586;BME280;69054;50.866;4.636;2023-09-12T00:56:41;100881.97;;;17.28;100.00
79586;BME280;69054;50.866;4.636;2023-09-12T00:59:08;100871.88;;;17.22;100.00
79586;BME280;69054;50.866;4.636;2023-09-12T01:01:34;100864.91;;;17.19;100.00
79586;BME280;69054;50.866;4.636;2023-09-12T01:04:00;100866.19;;;17.16;100.00
79586;BME280;69054;50.866;4.636;2023-09-12T01:06:29;100873.06;;;17.14;100.00
79586;BME280;69054;50.866;4.636;2023-09-12T01:08:55;100868.84;;;17.11;100.00
79586;BME280;69054;50.866;4.636;2023-09-12T01:11:21;100867.88;;;17.06;100.00
79586;BME280;69054;50.866;4.636;2023-09-12T01:13:47;100863.28;;;16.99;100.00
79586;BME280;69054;50.866;4.636;2023-09-12T01:16:12;100873.75;;;16.97;100.00
79586;BME280;69054;50.866;4.636;2023-09-12T01:18:38;100866.41;;;17.03;100.00
79586;BME280;69054;50.866;4.636;2023-09-12T01:24:02;100873.81;;;16.91;100.00
79586;BME280;69054;50.866;4.636;2023-09-12T01:26:41;100876.03;;;16.82;100.00
79586;BME280;69054;50.866;4.636;2023-09-12T01:29:08;100868.94;;;16.74;100.00
79586;BME280;69054;50.866;4.636;2023-09-12T01:31:36;100868.47;;;16.77;100.00
79586;BME280;69054;50.866;4.636;2023-09-12T01:34:09;100863.44;;;16.74;100.00
79586;BME280;69054;50.866;4.636;2023-09-12T01:36:35;100856.31;;;16.66;100.00
79586;BME280;69054;50.866;4.636;2023-09-12T01:39:01;100851.50;;;16.62;100.00
79586;BME280;69054;50.866;4.636;2023-09-12T01:41:27;100855.56;;;16.59;100.00
79586;BME280;69054;50.866;4.636;2023-09-12T01:43:54;100861.47;;;16.63;100.00
79586;BME280;69054;50.866;4.636;2023-09-12T01:46:21;100860.19;;;16.65;100.00
79586;BME280;69054;50.866;4.636;2023-09-12T01:48:47;100848.28;;;16.65;100.00
79586;BME280;69054;50.866;4.636;2023-09-12T01:51:17;100847.09;;;16.61;100.00
79586;BME280;69054;50.866;4.636;2023-09-12T01:53:45;100848.88;;;16.55;100.00
79586;BME280;69054;50.866;4.636;2023-09-12T01:56:12;100843.91;;;16.45;100.00
79586;BME280;69054;50.866;4.636;2023-09-12T01:58:38;100844.81;;;16.39;100.00
79586;BME280;69054;50.866;4.636;2023-09-12T02:01:04;100845.75;;;16.33;100.00
79586;BME280;69054;50.866;4.636;2023-09-12T02:03:29;100840.13;;;16.28;100.00
79586;BME280;69054;50.866;4.636;2023-09-12T02:05:54;100839.50;;;16.26;100.00
79586;BME280;69054;50.866;4.636;2023-09-12T02:08:20;100837.34;;;16.28;100.00
79586;BME280;69054;50.866;4.636;2023-09-12T02:10:45;100837.34;;;16.28;100.00
79586;BME280;69054;50.866;4.636;2023-09-12T02:13:11;100845.00;;;16.26;100.00
79586;BME280;69054;50.866;4.636;2023-09-12T02:15:36;100836.50;;;16.27;100.00
79586;BME280;69054;50.866;4.636;2023-09-12T02:18:02;100832.31;;;16.25;100.00
79586;BME280;69054;50.866;4.636;2023-09-12T02:20:27;100833.13;;;16.25;100.00
79586;BME280;69054;50.866;4.636;2023-09-12T02:22:52;100827.41;;;16.27;100.00
79586;BME280;69054;50.866;4.636;2023-09-12T02:25:18;100829.22;;;16.33;100.00
79586;BME280;69054;50.866;4.636;2023-09-12T02:27:44;100821.69;;;16.40;100.00
79586;BME280;69054;50.866;4.636;2023-09-12T02:30:09;100825.22;;;16.47;100.00
79586;BME280;69054;50.866;4.636;2023-09-12T02:32:35;100825.69;;;16.56;100.00
79586;BME280;69054;50.866;4.636;2023-09-12T02:35:00;100826.09;;;16.60;100.00
79586;BME280;69054;50.866;4.636;2023-09-12T02:37:25;100825.84;;;16.61;100.00
79586;BME280;69054;50.866;4.636;2023-09-12T02:39:51;100826.44;;;16.63;100.00
79586;BME280;69054;50.866;4.636;2023-09-12T02:42:16;100834.66;;;16.70;100.00
79586;BME280;69054;50.866;4.636;2023-09-12T02:44:42;100846.72;;;16.88;100.00
79586;BME280;69054;50.866;4.636;2023-09-12T02:47:07;100847.94;;;16.92;100.00
79586;BME280;69054;50.866;4.636;2023-09-12T02:49:32;100847.94;;;16.92;100.00
79586;BME280;69054;50.866;4.636;2023-09-12T02:51:58;100851.91;;;16.96;100.00
79586;BME280;69054;50.866;4.636;2023-09-12T02:54:23;100859.09;;;16.97;100.00
79586;BME280;69054;50.866;4.636;2023-09-12T02:56:49;100858.59;;;17.00;100.00
79586;BME280;69054;50.866;4.636;2023-09-12T02:59:14;100853.56;;;16.97;100.00
79586;BME280;69054;50.866;4.636;2023-09-12T03:01:39;100849.97;;;16.96;100.00
79586;BME280;69054;50.866;4.636;2023-09-12T03:04:05;100856.78;;;16.94;100.00
79586;BME280;69054;50.866;4.636;2023-09-12T03:06:30;100861.72;;;16.92;100.00
79586;BME280;69054;50.866;4.636;2023-09-12T03:08:56;100855.38;;;16.91;100.00
79586;BME280;69054;50.866;4.636;2023-09-12T03:11:21;100859.94;;;16.97;100.00
79586;BME280;69054;50.866;4.636;2023-09-12T03:13:47;100865.34;;;17.04;100.00
79586;BME280;69054;50.866;4.636;2023-09-12T03:16:13;100871.84;;;17.10;100.00
79586;BME280;69054;50.866;4.636;2023-09-12T03:18:39;100866.19;;;17.16;100.00
79586;BME280;69054;50.866;4.636;2023-09-12T03:21:05;100872.47;;;17.24;100.00
79586;BME280;69054;50.866;4.636;2023-09-12T03:23:30;100875.81;;;17.26;100.00
79586;BME280;69054;50.866;4.636;2023-09-12T03:26:03;100860.94;;;17.27;100.00
79586;BME280;69054;50.866;4.636;2023-09-12T03:28:29;100875.81;;;17.26;100.00
79586;BME280;69054;50.866;4.636;2023-09-12T03:31:06;100874.16;;;17.25;100.00
79586;BME280;69054;50.866;4.636;2023-09-12T03:33:32;100876.06;;;17.24;100.00
79586;BME280;69054;50.866;4.636;2023-09-12T03:35:57;100867.19;;;17.22;100.00
79586;BME280;69054;50.866;4.636;2023-09-12T03:38:23;100871.88;;;17.22;100.00
79586;BME280;69054;50.866;4.636;2023-09-12T03:40:48;100867.66;;;17.19;100.00
79586;BME280;69054;50.866;4.636;2023-09-12T03:43:13;100872.34;;;17.18;100.00
79586;BME280;69054;50.866;4.636;2023-09-12T03:45:39;100859.38;;;17.19;100.00
79586;BME280;69054;50.866;4.636;2023-09-12T03:48:04;100860.44;;;17.18;100.00
79586;BME280;69054;50.866;4.636;2023-09-12T03:50:30;100859.38;;;17.19;100.00
79586;BME280;69054;50.866;4.636;2023-09-12T03:52:56;100861.31;;;17.18;100.00
79586;BME280;69054;50.866;4.636;2023-09-12T03:55:22;100842.22;;;17.17;100.00
79586;BME280;69054;50.866;4.636;2023-09-12T03:57:47;100832.59;;;17.19;100.00
79586;BME280;69054;50.866;4.636;2023-09-12T04:00:13;100819.88;;;17.18;100.00
79586;BME280;69054;50.866;4.636;2023-09-12T04:02:39;100822.41;;;17.20;100.00
79586;BME280;69054;50.866;4.636;2023-09-12T04:05:04;100812.44;;;17.19;100.00
79586;BME280;69054;50.866;4.636;2023-09-12T04:07:30;100801.97;;;17.21;100.00
79586;BME280;69054;50.866;4.636;2023-09-12T04:09:55;100790.47;;;17.24;100.00
79586;BME280;69054;50.866;4.636;2023-09-12T04:12:21;100791.78;;;17.33;100.00
79586;BME280;69054;50.866;4.636;2023-09-12T04:14:49;100790.94;;;17.33;100.00
79586;BME280;69054;50.866;4.636;2023-09-12T04:17:15;100795.41;;;17.34;100.00
79586;BME280;69054;50.866;4.636;2023-09-12T04:19:41;100799.47;;;17.43;100.00
79586;BME280;69054;50.866;4.636;2023-09-12T04:22:06;100808.34;;;17.45;100.00
79586;BME280;69054;50.866;4.636;2023-09-12T04:24:32;100811.09;;;17.45;100.00
79586;BME280;69054;50.866;4.636;2023-09-12T04:26:57;100812.22;;;17.44;100.00
79586;BME280;69054;50.866;4.636;2023-09-12T04:29:22;100812.69;;;17.41;100.00
79586;BME280;69054;50.866;4.636;2023-09-12T04:31:48;100807.50;;;17.33;100.00
79586;BME280;69054;50.866;4.636;2023-09-12T04:34:13;100817.97;;;17.31;100.00
79586;BME280;69054;50.866;4.636;2023-09-12T04:36:39;100829.13;;;17.36;100.00
79586;BME280;69054;50.866;4.636;2023-09-12T04:39:04;100816.38;;;17.35;100.00
79586;BME280;69054;50.866;4.636;2023-09-12T04:41:30;100808.59;;;17.32;100.00
79586;BME280;69054;50.866;4.636;2023-09-12T04:43:55;100822.63;;;17.30;100.00
79586;BME280;69054;50.866;4.636;2023-09-12T04:46:22;100823.13;;;17.27;100.00
79586;BME280;69054;50.866;4.636;2023-09-12T04:48:47;100810.16;;;17.28;100.00
79586;BME280;69054;50.866;4.636;2023-09-12T04:51:13;100801.75;;;17.23;100.00
79586;BME280;69054;50.866;4.636;2023-09-12T04:53:38;100811.38;;;17.20;100.00
79586;BME280;69054;50.866;4.636;2023-09-12T04:56:05;100809.09;;;17.17;100.00
79586;BME280;69054;50.866;4.636;2023-09-12T04:58:32;100807.88;;;17.13;100.00
79586;BME280;69054;50.866;4.636;2023-09-12T05:00:57;100812.31;;;17.14;100.00
79586;BME280;69054;50.866;4.636;2023-09-12T05:03:23;100813.75;;;17.16;100.00
79586;BME280;69054;50.866;4.636;2023-09-12T05:05:49;100805.22;;;17.18;100.00
79586;BME280;69054;50.866;4.636;2023-09-12T05:08:17;100803.81;;;17.15;100.00
79586;BME280;69054;50.866;4.636;2023-09-12T05:10:46;100803.81;;;17.15;100.00
79586;BME280;69054;50.866;4.636;2023-09-12T05:13:12;100814.22;;;17.13;100.00
79586;BME280;69054;50.866;4.636;2023-09-12T05:15:37;100822.16;;;17.22;100.00
79586;BME280;69054;50.866;4.636;2023-09-12T05:18:05;100824.44;;;17.25;100.00
79586;BME280;69054;50.866;4.636;2023-09-12T05:20:30;100833.81;;;17.24;100.00
79586;BME280;69054;50.866;4.636;2023-09-12T05:22:56;100830.47;;;17.22;100.00
79586;BME280;69054;50.866;4.636;2023-09-12T05:25:21;100828.03;;;17.13;100.00
79586;BME280;69054;50.866;4.636;2023-09-12T05:27:47;100817.19;;;17.00;100.00
79586;BME280;69054;50.866;4.636;2023-09-12T05:30:12;100837.34;;;16.89;100.00
79586;BME280;69054;50.866;4.636;2023-09-12T05:32:37;100825.91;;;16.85;100.00
79586;BME280;69054;50.866;4.636;2023-09-12T05:35:03;100832.59;;;16.77;100.00
79586;BME280;69054;50.866;4.636;2023-09-12T05:37:29;100821.31;;;16.67;100.00
79586;BME280;69054;50.866;4.636;2023-09-12T05:39:54;100840.25;;;16.63;100.00
79586;BME280;69054;50.866;4.636;2023-09-12T05:42:20;100845.69;;;16.70;100.00
79586;BME280;69054;50.866;4.636;2023-09-12T05:44:48;100847.56;;;16.88;100.00
79586;BME280;69054;50.866;4.636;2023-09-12T05:47:14;100854.97;;;16.88;100.00
79586;BME280;69054;50.866;4.636;2023-09-12T05:49:39;100857.91;;;16.93;100.00
79586;BME280;69054;50.866;4.636;2023-09-12T05:52:05;100866.88;;;17.00;100.00
79586;BME280;69054;50.866;4.636;2023-09-12T05:54:30;100865.81;;;17.01;100.00
79586;BME280;69054;50.866;4.636;2023-09-12T05:56:56;100871.69;;;16.93;100.00
79586;BME280;69054;50.866;4.636;2023-09-12T05:59:21;100861.38;;;16.88;100.00
79586;BME280;69054;50.866;4.636;2023-09-12T06:01:47;100863.25;;;16.88;100.00
79586;BME280;69054;50.866;4.636;2023-09-12T06:04:13;100861.72;;;16.92;100.00
79586;BME280;69054;50.866;4.636;2023-09-12T06:06:39;100852.50;;;16.98;100.00
79586;BME280;69054;50.866;4.636;2023-09-12T06:09:05;100855.28;;;17.10;100.00
79586;BME280;69054;50.866;4.636;2023-09-12T06:11:30;100869.47;;;17.25;100.00
79586;BME280;69054;50.866;4.636;2023-09-12T06:13:56;100865.84;;;17.36;100.00
79586;BME280;69054;50.866;4.636;2023-09-12T06:16:22;100859.13;;;17.56;100.00
79586;BME280;69054;50.866;4.636;2023-09-12T06:18:47;100855.31;;;17.81;100.00
79586;BME280;69054;50.866;4.636;2023-09-12T06:21:16;100841.69;;;18.03;100.00
79586;BME280;69054;50.866;4.636;2023-09-12T06:23:42;100830.66;;;18.32;100.00
79586;BME280;69054;50.866;4.636;2023-09-12T06:26:07;100829.50;;;18.56;100.00
79586;BME280;69054;50.866;4.636;2023-09-12T06:28:33;100842.66;;;18.95;100.00
79586;BME280;69054;50.866;4.636;2023-09-12T06:30:58;100837.47;;;19.32;100.00
79586;BME280;69054;50.866;4.636;2023-09-12T06:33:27;100850.53;;;19.54;100.00
79586;BME280;69054;50.866;4.636;2023-09-12T06:35:53;100858.41;;;19.79;100.00
79586;BME280;69054;50.866;4.636;2023-09-12T06:38:22;100868.63;;;19.96;100.00
79586;BME280;69054;50.866;4.636;2023-09-12T06:40:48;100871.00;;;19.87;100.00
79586;BME280;69054;50.866;4.636;2023-09-12T06:43:14;100875.13;;;19.67;100.00
79586;BME280;69054;50.866;4.636;2023-09-12T06:45:42;100874.88;;;19.69;100.00
79586;BME280;69054;50.866;4.636;2023-09-12T06:48:08;100885.38;;;19.84;100.00
79586;BME280;69054;50.866;4.636;2023-09-12T06:50:34;100880.88;;;20.00;100.00
79586;BME280;69054;50.866;4.636;2023-09-12T06:52:59;100896.09;;;20.19;100.00
79586;BME280;69054;50.866;4.636;2023-09-12T06:55:24;100900.88;;;20.46;100.00
79586;BME280;69054;50.866;4.636;2023-09-12T06:57:50;100898.53;;;20.60;100.00
79586;BME280;69054;50.866;4.636;2023-09-12T07:00:15;100907.00;;;20.92;97.79
79586;BME280;69054;50.866;4.636;2023-09-12T07:02:42;100910.22;;;21.12;96.69
79586;BME280;69054;50.866;4.636;2023-09-12T07:05:07;100917.38;;;21.62;96.10
79586;BME280;69054;50.866;4.636;2023-09-12T07:07:33;100911.16;;;21.92;92.40
79586;BME280;69054;50.866;4.636;2023-09-12T07:09:58;100906.16;;;22.42;89.93
79586;BME280;69054;50.866;4.636;2023-09-12T07:12:25;100923.41;;;22.44;86.89
79586;BME280;69054;50.866;4.636;2023-09-12T07:14:51;100923.16;;;22.51;88.35
79586;BME280;69054;50.866;4.636;2023-09-12T07:17:17;100926.53;;;22.10;89.68
79586;BME280;69054;50.866;4.636;2023-09-12T07:19:43;100923.56;;;21.74;91.23
79586;BME280;69054;50.866;4.636;2023-09-12T07:22:08;100930.38;;;21.56;94.33
79586;BME280;69054;50.866;4.636;2023-09-12T07:24:34;100936.06;;;21.39;93.47
79586;BME280;69054;50.866;4.636;2023-09-12T07:26:59;100932.66;;;21.32;94.77
79586;BME280;69054;50.866;4.636;2023-09-12T07:29:25;100931.25;;;21.62;93.14
79586;BME280;69054;50.866;4.636;2023-09-12T07:31:54;100933.31;;;22.30;89.19
79586;BME280;69054;50.866;4.636;2023-09-12T07:34:21;100926.13;;;23.13;83.38
79586;BME280;69054;50.866;4.636;2023-09-12T07:36:47;100933.69;;;23.38;85.44
79586;BME280;69054;50.866;4.636;2023-09-12T07:39:12;100925.81;;;22.99;82.13
79586;BME280;69054;50.866;4.636;2023-09-12T07:41:38;100937.59;;;23.32;81.24
79586;BME280;69054;50.866;4.636;2023-09-12T07:44:03;100927.09;;;24.40;78.41
79586;BME280;69054;50.866;4.636;2023-09-12T07:46:30;100936.72;;;25.24;73.31
79586;BME280;69054;50.866;4.636;2023-09-12T07:48:56;100927.38;;;25.44;71.29
79586;BME280;69054;50.866;4.636;2023-09-12T07:51:23;100935.09;;;26.16;69.23
79586;BME280;69054;50.866;4.636;2023-09-12T07:53:49;100937.22;;;26.48;67.52
79586;BME280;69054;50.866;4.636;2023-09-12T07:56:14;100947.47;;;26.58;66.04
79586;BME280;69054;50.866;4.636;2023-09-12T07:58:40;100948.13;;;25.96;67.74
79586;BME280;69054;50.866;4.636;2023-09-12T08:01:09;100946.28;;;26.16;67.74
79586;BME280;69054;50.866;4.636;2023-09-12T08:03:35;100950.28;;;26.34;65.57
79586;BME280;69054;50.866;4.636;2023-09-12T08:06:02;100960.47;;;26.49;64.69
79586;BME280;69054;50.866;4.636;2023-09-12T08:08:28;100954.13;;;26.86;63.63
79586;BME280;69054;50.866;4.636;2023-09-12T08:10:53;100958.13;;;26.99;63.83
79586;BME280;69054;50.866;4.636;2023-09-12T08:13:18;100954.44;;;26.61;65.81
79586;BME280;69054;50.866;4.636;2023-09-12T08:15:44;100950.94;;;26.26;66.30
79586;BME280;69054;50.866;4.636;2023-09-12T08:18:10;100953.13;;;25.41;68.75
79586;BME280;69054;50.866;4.636;2023-09-12T08:20:35;100956.38;;;25.53;68.88
79586;BME280;69054;50.866;4.636;2023-09-12T08:23:00;100953.78;;;25.91;66.57
79586;BME280;69054;50.866;4.636;2023-09-12T08:25:26;100953.19;;;26.24;65.39
79586;BME280;69054;50.866;4.636;2023-09-12T08:27:52;100948.03;;;25.48;69.20
79586;BME280;69054;50.866;4.636;2023-09-12T08:30:17;100948.94;;;25.38;70.64
79586;BME280;69054;50.866;4.636;2023-09-12T08:32:43;100941.53;;;25.13;69.72
79586;BME280;69054;50.866;4.636;2023-09-12T08:35:12;100938.44;;;24.75;70.64
79586;BME280;69054;50.866;4.636;2023-09-12T08:37:39;100941.84;;;24.56;71.39
79586;BME280;69054;50.866;4.636;2023-09-12T08:40:06;100939.09;;;24.51;74.47
79586;BME280;69054;50.866;4.636;2023-09-12T08:42:38;100937.47;;;24.35;72.94
79586;BME280;69054;50.866;4.636;2023-09-12T08:45:08;100935.47;;;25.45;68.18
79586;BME280;69054;50.866;4.636;2023-09-12T08:47:41;100947.16;;;27.22;61.30
79586;BME280;69054;50.866;4.636;2023-09-12T08:50:13;100952.03;;;28.71;56.65
79586;BME280;69054;50.866;4.636;2023-09-12T08:52:45;100946.78;;;29.65;53.17
79586;BME280;69054;50.866;4.636;2023-09-12T08:55:11;100965.94;;;31.14;47.71
79586;BME280;69054;50.866;4.636;2023-09-12T08:57:41;100955.13;;;31.08;47.71
79586;BME280;69054;50.866;4.636;2023-09-12T09:00:08;100956.63;;;31.31;48.95
79586;BME280;69054;50.866;4.636;2023-09-12T09:02:37;100946.97;;;31.50;44.67
79586;BME280;69054;50.866;4.636;2023-09-12T09:05:04;100949.63;;;31.73;45.11
79586;BME280;69054;50.866;4.636;2023-09-12T09:07:33;100953.97;;;31.35;44.31
79586;BME280;69054;50.866;4.636;2023-09-12T09:10:02;100946.50;;;31.48;44.13
79586;BME280;69054;50.866;4.636;2023-09-12T09:12:29;100944.19;;;31.24;43.69
79586;BME280;69054;50.866;4.636;2023-09-12T09:14:54;100937.63;;;30.13;46.73
79586;BME280;69054;50.866;4.636;2023-09-12T09:17:20;100947.13;;;30.92;44.69
79586;BME280;69054;50.866;4.636;2023-09-12T09:19:45;100937.31;;;31.77;43.52
79586;BME280;69054;50.866;4.636;2023-09-12T09:22:11;100950.25;;;30.73;45.73
79586;BME280;69054;50.866;4.636;2023-09-12T09:24:36;100943.50;;;31.62;44.17
79586;BME280;69054;50.866;4.636;2023-09-12T09:27:02;100946.88;;;32.50;41.81
79586;BME280;69054;50.866;4.636;2023-09-12T09:29:29;100941.53;;;31.27;44.59
79586;BME280;69054;50.866;4.636;2023-09-12T09:32:01;100941.19;;;31.55;43.67
79586;BME280;69054;50.866;4.636;2023-09-12T09:34:27;100947.16;;;31.71;43.58
79586;BME280;69054;50.866;4.636;2023-09-12T09:36:55;100954.19;;;32.03;43.01
79586;BME280;69054;50.866;4.636;2023-09-12T09:39:27;100944.25;;;31.97;41.99
79586;BME280;69054;50.866;4.636;2023-09-12T09:41:56;100949.66;;;32.20;40.67
79586;BME280;69054;50.866;4.636;2023-09-12T09:44:22;100941.59;;;31.92;41.14
79586;BME280;69054;50.866;4.636;2023-09-12T09:47:00;100941.97;;;31.73;43.60
79586;BME280;69054;50.866;4.636;2023-09-12T09:49:31;100948.28;;;32.65;41.30
79586;BME280;69054;50.866;4.636;2023-09-12T09:51:59;100950.66;;;32.24;41.03
79586;BME280;69054;50.866;4.636;2023-09-12T09:54:25;100948.31;;;32.56;41.45
79586;BME280;69054;50.866;4.636;2023-09-12T09:56:55;100937.34;;;31.69;41.62
79586;BME280;69054;50.866;4.636;2023-09-12T09:59:22;100943.16;;;31.46;40.66
79586;BME280;69054;50.866;4.636;2023-09-12T10:01:49;100936.13;;;31.87;42.25
79586;BME280;69054;50.866;4.636;2023-09-12T10:04:17;100938.31;;;30.68;45.48
79586;BME280;69054;50.866;4.636;2023-09-12T10:06:44;100937.00;;;29.03;49.93
79586;BME280;69054;50.866;4.636;2023-09-12T10:09:16;100930.44;;;27.83;52.38
79586;BME280;69054;50.866;4.636;2023-09-12T10:11:46;100930.31;;;26.65;56.63
79586;BME280;69054;50.866;4.636;2023-09-12T10:14:15;100930.31;;;26.41;57.04
79586;BME280;69054;50.866;4.636;2023-09-12T10:16:45;100925.25;;;27.05;56.48
79586;BME280;69054;50.866;4.636;2023-09-12T10:19:18;100925.53;;;26.84;57.68
79586;BME280;69054;50.866;4.636;2023-09-12T10:24:30;100935.72;;;30.00;49.00
79586;BME280;69054;50.866;4.636;2023-09-12T10:26:56;100945.94;;;31.81;43.77
79586;BME280;69054;50.866;4.636;2023-09-12T10:29:22;100943.94;;;32.37;42.69
79586;BME280;69054;50.866;4.636;2023-09-12T10:31:48;100945.41;;;33.16;39.31
79586;BME280;69054;50.866;4.636;2023-09-12T10:34:14;100945.63;;;33.53;40.07
79586;BME280;69054;50.866;4.636;2023-09-12T10:36:41;100957.53;;;33.46;39.45
79586;BME280;69054;50.866;4.636;2023-09-12T10:39:07;100953.50;;;32.15;41.60
79586;BME280;69054;50.866;4.636;2023-09-12T10:41:37;100942.03;;;31.21;43.48
79586;BME280;69054;50.866;4.636;2023-09-12T10:44:09;100944.53;;;31.22;43.37
79586;BME280;69054;50.866;4.636;2023-09-12T10:46:39;100943.47;;;31.79;43.78
79586;BME280;69054;50.866;4.636;2023-09-12T10:49:13;100942.13;;;32.33;41.41
79586;BME280;69054;50.866;4.636;2023-09-12T10:51:43;100941.78;;;32.64;40.49
79586;BME280;69054;50.866;4.636;2023-09-12T10:54:09;100943.56;;;32.99;40.19
79586;BME280;69054;50.866;4.636;2023-09-12T10:56:37;100939.00;;;33.49;38.75
79586;BME280;69054;50.866;4.636;2023-09-12T11:01:44;100937.41;;;34.06;37.46
79586;BME280;69054;50.866;4.636;2023-09-12T11:06:45;100938.94;;;34.16;37.66
79586;BME280;69054;50.866;4.636;2023-09-12T11:11:54;100933.88;;;34.21;37.65
79586;BME280;69054;50.866;4.636;2023-09-12T11:14:20;100936.19;;;33.06;38.53
79586;BME280;69054;50.866;4.636;2023-09-12T11:19:44;100928.53;;;33.49;38.60
79586;BME280;69054;50.866;4.636;2023-09-12T11:22:26;100928.22;;;34.34;36.07
79586;BME280;69054;50.866;4.636;2023-09-12T11:24:54;100929.69;;;33.82;37.38
79586;BME280;69054;50.866;4.636;2023-09-12T11:27:22;100920.38;;;34.92;34.94
79586;BME280;69054;50.866;4.636;2023-09-12T11:29:48;100924.34;;;35.16;34.65
79586;BME280;69054;50.866;4.636;2023-09-12T11:32:32;100912.41;;;34.33;35.25
79586;BME280;69054;50.866;4.636;2023-09-12T11:35:05;100923.16;;;34.39;36.00
79586;BME280;69054;50.866;4.636;2023-09-12T11:37:31;100910.84;;;34.60;35.31
79586;BME280;69054;50.866;4.636;2023-09-12T11:39:58;100912.84;;;34.84;35.27
79586;BME280;69054;50.866;4.636;2023-09-12T11:42:24;100908.97;;;35.45;34.98
79586;BME280;69054;50.866;4.636;2023-09-12T11:44:51;100907.47;;;35.96;33.77
79586;BME280;69054;50.866;4.636;2023-09-12T11:47:16;100915.50;;;35.33;34.77
79586;BME280;69054;50.866;4.636;2023-09-12T11:49:42;100906.22;;;33.48;38.97
79586;BME280;69054;50.866;4.636;2023-09-12T11:52:10;100899.13;;;32.10;41.40
79586;BME280;69054;50.866;4.636;2023-09-12T11:54:36;100901.72;;;32.62;42.09
79586;BME280;69054;50.866;4.636;2023-09-12T11:57:02;100903.84;;;33.95;37.00
79586;BME280;69054;50.866;4.636;2023-09-12T11:59:29;100912.19;;;35.03;33.70
79586;BME280;69054;50.866;4.636;2023-09-12T12:01:55;100918.34;;;34.93;34.87
79586;BME280;69054;50.866;4.636;2023-09-12T12:04:24;100919.59;;;35.08;34.45
79586;BME280;69054;50.866;4.636;2023-09-12T12:06:51;100919.13;;;34.53;35.08
79586;BME280;69054;50.866;4.636;2023-09-12T12:09:18;100917.69;;;35.52;33.68
79586;BME280;69054;50.866;4.636;2023-09-12T12:11:45;100912.69;;;35.21;34.79
79586;BME280;69054;50.866;4.636;2023-09-12T12:14:13;100899.38;;;33.61;37.50
79586;BME280;69054;50.866;4.636;2023-09-12T12:16:40;100894.84;;;31.56;40.08
79586;BME280;69054;50.866;4.636;2023-09-12T12:19:06;100906.63;;;30.71;43.09
79586;BME280;69054;50.866;4.636;2023-09-12T12:21:31;100888.66;;;29.69;47.04
79586;BME280;69054;50.866;4.636;2023-09-12T12:24:01;100877.75;;;28.99;48.48
79586;BME280;69054;50.866;4.636;2023-09-12T12:26:28;100877.09;;;28.66;48.47
79586;BME280;69054;50.866;4.636;2023-09-12T12:28:53;100877.09;;;28.66;50.13
79586;BME280;69054;50.866;4.636;2023-09-12T12:31:19;100868.22;;;29.54;47.83
79586;BME280;69054;50.866;4.636;2023-09-12T12:33:52;100862.84;;;31.35;43.88
79586;BME280;69054;50.866;4.636;2023-09-12T12:36:18;100864.97;;;31.46;43.35
79586;BME280;69054;50.866;4.636;2023-09-12T12:38:46;100859.88;;;30.87;45.44
79586;BME280;69054;50.866;4.636;2023-09-12T12:41:17;100866.47;;;29.99;46.41
79586;BME280;69054;50.866;4.636;2023-09-12T12:43:49;100856.88;;;29.68;46.22
79586;BME280;69054;50.866;4.636;2023-09-12T12:46:16;100858.59;;;31.76;42.51
79586;BME280;69054;50.866;4.636;2023-09-12T12:48:43;100865.00;;;33.17;39.03
79586;BME280;69054;50.866;4.636;2023-09-12T12:51:26;100861.38;;;33.16;39.37
79586;BME280;69054;50.866;4.636;2023-09-12T12:53:53;100861.88;;;32.25;40.76
79586;BME280;69054;50.866;4.636;2023-09-12T12:56:29;100860.22;;;31.12;43.67
79586;BME280;69054;50.866;4.636;2023-09-12T12:58:56;100847.03;;;30.37;43.97